createdAt,value
2018-08-04T00:01:21.132Z,99.20
2018-08-04T00:03:49.465Z,99.40
2018-08-04T00:06:17.784Z,99.10
2018-08-04T00:08:46.081Z,99.10
2018-08-04T00:11:14.464Z,99.00
2018-08-04T00:13:42.748Z,98.40
2018-08-04T00:16:11.125Z,98.00
2018-08-04T00:18:39.453Z,98.40
2018-08-04T00:21:07.753Z,98.90
2018-08-04T00:23:36.067Z,99.60
2018-08-04T00:26:04.404Z,99.90
2018-08-04T00:28:32.771Z,99.90
2018-08-04T00:31:01.093Z,99.90
2018-08-04T00:33:29.412Z,99.90
2018-08-04T00:35:57.753Z,99.90
2018-08-04T00:38:26.083Z,99.90
2018-08-04T00:40:54.404Z,99.90
2018-08-04T00:43:22.701Z,99.90
2018-08-04T00:45:50.998Z,99.90
2018-08-04T00:48:19.304Z,99.90
2018-08-04T00:50:47.626Z,99.90
2018-08-04T00:53:15.958Z,99.90
2018-08-04T00:55:44.324Z,99.90
2018-08-04T01:00:40.745Z,99.90
2018-08-04T01:03:09.061Z,99.90
2018-08-04T01:05:37.393Z,99.90
2018-08-04T01:08:05.706Z,99.90
2018-08-04T01:10:34.050Z,99.90
2018-08-04T01:13:02.354Z,99.90
2018-08-04T01:15:30.668Z,99.90
2018-08-04T01:17:59.017Z,99.90
2018-08-04T01:20:27.329Z,99.90
2018-08-04T01:22:55.661Z,99.90
2018-08-04T01:25:23.958Z,99.90
2018-08-04T01:27:52.257Z,99.90
2018-08-04T01:30:20.561Z,99.90
2018-08-04T01:32:48.861Z,99.90
2018-08-04T01:35:17.215Z,99.90
2018-08-04T01:37:45.532Z,99.90
2018-08-04T01:40:13.869Z,99.90
2018-08-04T01:42:42.169Z,99.90
2018-08-04T01:45:10.539Z,99.90
2018-08-04T01:47:38.861Z,99.90
2018-08-04T01:50:07.238Z,99.90
2018-08-04T01:52:35.570Z,99.90
2018-08-04T01:55:03.883Z,99.90
2018-08-04T01:57:32.332Z,99.90
2018-08-04T02:00:00.653Z,99.90
2018-08-04T02:02:29.006Z,99.90
2018-08-04T02:04:57.346Z,99.90
2018-08-04T02:07:25.689Z,99.90
2018-08-04T02:09:54.069Z,99.90
2018-08-04T02:12:22.413Z,99.90
2018-08-04T02:14:50.806Z,99.90
2018-08-04T02:17:19.148Z,99.90
2018-08-04T02:19:47.456Z,99.90
2018-08-04T02:22:15.747Z,99.90
2018-08-04T02:24:44.121Z,99.90
2018-08-04T02:29:40.473Z,99.90
2018-08-04T02:32:08.768Z,99.90
2018-08-04T02:34:37.073Z,99.90
2018-08-04T02:37:05.622Z,99.90
2018-08-04T02:39:33.925Z,99.90
2018-08-04T02:42:02.254Z,99.90
2018-08-04T02:44:30.602Z,99.90
2018-08-04T02:46:58.918Z,99.90
2018-08-04T02:49:27.266Z,99.90
2018-08-04T02:51:55.594Z,99.90
2018-08-04T02:54:23.908Z,99.90
2018-08-04T02:56:52.206Z,99.90
2018-08-04T02:59:20.531Z,99.90
2018-08-04T03:01:49.735Z,99.90
2018-08-04T03:04:18.115Z,99.90
2018-08-04T03:06:46.469Z,99.90
2018-08-04T03:09:14.778Z,99.90
2018-08-04T03:11:43.129Z,99.90
2018-08-04T03:14:11.480Z,99.90
2018-08-04T03:16:39.793Z,99.90
2018-08-04T03:19:08.118Z,99.90
2018-08-04T03:21:36.443Z,99.90
2018-08-04T03:24:04.773Z,99.90
2018-08-04T03:26:33.130Z,99.90
2018-08-04T03:29:01.427Z,99.90
2018-08-04T03:31:29.738Z,99.90
2018-08-04T03:33:58.032Z,99.90
2018-08-04T03:36:26.344Z,99.90
2018-08-04T03:38:54.739Z,99.90
2018-08-04T03:41:23.079Z,99.90
2018-08-04T03:43:51.871Z,99.90
2018-08-04T03:46:20.145Z,99.90
2018-08-04T03:48:48.464Z,99.90
2018-08-04T03:51:16.796Z,99.90
2018-08-04T03:53:45.113Z,99.90
2018-08-04T03:56:13.465Z,99.90
2018-08-04T03:58:41.753Z,99.90
2018-08-04T04:01:10.073Z,99.90
2018-08-04T04:06:06.406Z,99.90
2018-08-04T04:08:34.738Z,99.90
2018-08-04T04:11:03.057Z,99.90
2018-08-04T04:13:31.379Z,99.90
2018-08-04T04:15:59.702Z,99.90
2018-08-04T04:18:28.018Z,99.90
2018-08-04T04:20:56.349Z,99.90
2018-08-04T04:23:24.649Z,99.90
2018-08-04T04:25:52.965Z,99.90
2018-08-04T04:28:21.306Z,99.90
2018-08-04T04:33:17.692Z,99.90
2018-08-04T04:35:46.011Z,99.90
2018-08-04T04:38:14.367Z,99.90
2018-08-04T04:40:42.713Z,99.90
2018-08-04T04:43:11.029Z,99.90
2018-08-04T04:45:39.358Z,99.90
2018-08-04T04:48:07.643Z,99.90
2018-08-04T04:50:35.966Z,99.90
2018-08-04T04:53:04.314Z,99.90
2018-08-04T04:55:32.626Z,99.90
2018-08-04T04:58:00.975Z,99.90
2018-08-04T05:00:29.283Z,99.90
2018-08-04T05:02:57.563Z,99.90
2018-08-04T05:05:25.884Z,99.90
2018-08-04T05:07:54.226Z,99.90
2018-08-04T05:10:22.555Z,99.90
2018-08-04T05:12:50.905Z,99.90
2018-08-04T05:15:19.208Z,99.90
2018-08-04T05:17:47.530Z,99.90
2018-08-04T05:20:15.870Z,99.90
2018-08-04T05:22:44.214Z,99.90
2018-08-04T05:27:40.576Z,99.90
2018-08-04T05:30:09.032Z,99.90
2018-08-04T05:32:37.388Z,99.90
2018-08-04T05:35:05.709Z,99.90
2018-08-04T05:37:34.045Z,99.90
2018-08-04T05:40:02.409Z,99.90
2018-08-04T05:42:30.777Z,99.90
2018-08-04T05:44:59.109Z,99.90
2018-08-04T05:47:27.506Z,99.90
2018-08-04T05:49:55.882Z,99.90
2018-08-04T05:52:24.121Z,99.90
2018-08-04T05:54:52.458Z,99.90
2018-08-04T05:57:20.760Z,99.90
2018-08-04T05:59:49.069Z,99.90
2018-08-04T06:02:17.401Z,99.90
2018-08-04T06:04:45.754Z,99.90
2018-08-04T06:07:14.395Z,99.80
2018-08-04T06:09:42.697Z,99.90
2018-08-04T06:12:10.993Z,99.20
2018-08-04T06:14:39.318Z,99.80
2018-08-04T06:17:07.612Z,99.10
2018-08-04T06:19:35.947Z,96.40
2018-08-04T06:22:04.299Z,96.50
2018-08-04T06:24:32.556Z,96.30
2018-08-04T06:27:00.868Z,95.20
2018-08-04T06:29:29.223Z,95.30
2018-08-04T06:31:57.637Z,93.60
2018-08-04T06:34:25.944Z,94.70
2018-08-04T06:36:54.628Z,95.20
2018-08-04T06:39:22.932Z,94.80
2018-08-04T06:41:51.207Z,95.10
2018-08-04T06:44:19.543Z,95.20
2018-08-04T06:46:48.061Z,95.10
2018-08-04T06:51:44.422Z,95.90
2018-08-04T06:54:12.759Z,95.80
2018-08-04T06:56:41.148Z,94.80
2018-08-04T06:59:09.461Z,94.90
2018-08-04T07:01:37.824Z,94.60
2018-08-04T07:04:06.150Z,93.40
2018-08-04T07:06:34.424Z,93.30
2018-08-04T07:09:02.727Z,93.00
2018-08-04T07:11:31.187Z,92.60
2018-08-04T07:13:59.528Z,90.30
2018-08-04T07:16:27.931Z,84.20
2018-08-04T07:18:56.474Z,83.50
2018-08-04T07:21:24.787Z,85.10
2018-08-04T07:23:53.090Z,88.90
2018-08-04T07:26:21.425Z,90.20
2018-08-04T07:28:49.738Z,90.10
2018-08-04T07:31:18.052Z,90.60
2018-08-04T07:36:14.416Z,85.70
2018-08-04T07:38:42.735Z,82.10
2018-08-04T07:41:11.131Z,82.70
2018-08-04T07:43:39.420Z,86.00
2018-08-04T07:46:07.737Z,82.20
2018-08-04T07:48:36.037Z,76.70
2018-08-04T07:51:04.368Z,78.80
2018-08-04T07:53:32.722Z,76.40
2018-08-04T07:56:01.006Z,76.40
2018-08-04T07:58:29.335Z,75.00
2018-08-04T08:00:57.695Z,74.80
2018-08-04T08:03:26.040Z,74.60
2018-08-04T08:05:56.705Z,74.90
2018-08-04T08:08:25.001Z,73.60
2018-08-04T08:10:53.495Z,72.60
2018-08-04T08:13:21.834Z,73.00
2018-08-04T08:15:50.144Z,74.20
2018-08-04T08:18:18.504Z,73.10
2018-08-04T08:20:47.816Z,71.40
2018-08-04T08:23:16.299Z,70.80
2018-08-04T08:25:55.970Z,72.10
2018-08-04T08:28:24.345Z,69.50
2018-08-04T08:30:52.670Z,68.10
2018-08-04T08:33:20.986Z,72.60
2018-08-04T08:35:49.314Z,69.90
2018-08-04T08:38:18.263Z,66.70
2018-08-04T08:40:46.762Z,70.00
2018-08-04T08:43:15.110Z,66.70
2018-08-04T08:45:43.509Z,72.10
2018-08-04T08:48:11.866Z,68.70
2018-08-04T08:50:40.198Z,72.00
2018-08-04T08:53:08.581Z,71.60
2018-08-04T08:55:36.810Z,70.00
2018-08-04T08:58:05.530Z,74.20
2018-08-04T09:00:33.832Z,73.40
2018-08-04T09:03:02.186Z,73.10
2018-08-04T09:05:30.538Z,69.10
2018-08-04T09:07:58.978Z,70.20
2018-08-04T09:10:28.369Z,71.20
2018-08-04T09:15:24.742Z,71.50
2018-08-04T09:17:53.176Z,71.40
2018-08-04T09:20:22.616Z,70.70
2018-08-04T09:22:53.182Z,71.90
2018-08-04T09:25:21.525Z,70.80
2018-08-04T09:27:49.943Z,73.20
2018-08-04T09:30:18.294Z,74.70
2018-08-04T09:32:47.046Z,73.20
2018-08-04T09:35:16.088Z,73.80
2018-08-04T09:37:46.961Z,75.30
2018-08-04T09:40:16.465Z,76.60
2018-08-04T09:42:48.053Z,76.40
2018-08-04T09:45:16.990Z,76.60
2018-08-04T09:47:47.353Z,70.10
2018-08-04T09:50:15.652Z,71.70
2018-08-04T09:52:44.017Z,69.10
2018-08-04T09:55:12.669Z,71.40
2018-08-04T09:57:41.637Z,71.70
2018-08-04T10:00:15.940Z,72.90
2018-08-04T10:02:44.228Z,73.20
2018-08-04T10:05:12.596Z,69.40
2018-08-04T10:07:41.489Z,70.10
2018-08-04T10:10:09.918Z,69.10
2018-08-04T10:12:38.342Z,72.30
2018-08-04T10:15:08.012Z,70.80
2018-08-04T10:17:36.330Z,71.40
2018-08-04T10:20:05.242Z,71.70
2018-08-04T10:22:33.547Z,71.80
2018-08-04T10:25:01.893Z,70.30
2018-08-04T10:27:30.212Z,70.00
2018-08-04T10:29:59.046Z,70.60
2018-08-04T10:32:27.454Z,71.10
2018-08-04T10:34:56.205Z,71.20
2018-08-04T10:39:54.309Z,72.80
2018-08-04T10:42:22.628Z,70.10
2018-08-04T10:44:51.286Z,69.40
2018-08-04T10:47:19.614Z,70.10
2018-08-04T10:49:47.967Z,69.40
2018-08-04T10:52:16.317Z,69.40
2018-08-04T10:54:58.790Z,69.20
2018-08-04T10:57:28.018Z,71.60
2018-08-04T11:00:03.873Z,69.20
2018-08-04T11:02:32.285Z,71.90
2018-08-04T11:05:00.722Z,68.60
2018-08-04T11:07:29.054Z,70.40
2018-08-04T11:09:57.382Z,71.40
2018-08-04T11:12:25.764Z,72.40
2018-08-04T11:14:54.081Z,73.80
2018-08-04T11:17:22.417Z,72.60
2018-08-04T11:19:50.713Z,72.20
2018-08-04T11:22:19.096Z,70.20
2018-08-04T11:24:47.421Z,71.30
2018-08-04T11:27:15.782Z,67.40
2018-08-04T11:29:44.143Z,67.60
2018-08-04T11:32:12.440Z,69.70
2018-08-04T11:34:40.819Z,68.10
2018-08-04T11:37:09.113Z,67.00
2018-08-04T11:39:37.442Z,69.10
2018-08-04T11:42:05.751Z,68.20
2018-08-04T11:44:34.063Z,64.20
2018-08-04T11:47:02.395Z,67.20
2018-08-04T11:49:30.732Z,65.50
2018-08-04T11:51:59.100Z,67.40
2018-08-04T11:54:27.397Z,63.60
2018-08-04T11:56:55.705Z,65.90
2018-08-04T11:59:24.015Z,63.50
2018-08-04T12:01:52.361Z,65.70
2018-08-04T12:04:20.679Z,62.60
2018-08-04T12:06:48.989Z,62.40
2018-08-04T12:09:17.306Z,61.60
2018-08-04T12:11:45.636Z,62.80
2018-08-04T12:14:13.968Z,63.50
2018-08-04T12:16:42.520Z,67.20
2018-08-04T12:19:10.907Z,65.00
2018-08-04T12:21:39.242Z,60.60
2018-08-04T12:24:07.525Z,61.10
2018-08-04T12:26:35.880Z,63.20
2018-08-04T12:29:04.189Z,63.80
2018-08-04T12:31:32.540Z,63.10
2018-08-04T12:34:00.889Z,64.90
2018-08-04T12:36:29.217Z,61.50
2018-08-04T12:38:57.545Z,64.00
2018-08-04T12:41:26.027Z,64.40
2018-08-04T12:43:54.398Z,62.40
2018-08-04T12:46:22.746Z,59.60
2018-08-04T12:48:51.062Z,59.50
2018-08-04T12:51:19.374Z,60.70
2018-08-04T12:53:47.722Z,58.30
2018-08-04T12:56:16.076Z,60.60
2018-08-04T12:58:44.517Z,57.00
2018-08-04T13:01:12.908Z,59.30
2018-08-04T13:03:41.180Z,57.40
2018-08-04T13:06:09.554Z,55.10
2018-08-04T13:08:37.893Z,54.10
2018-08-04T13:11:06.289Z,53.80
2018-08-04T13:13:34.658Z,54.40
2018-08-04T13:16:02.974Z,53.10
2018-08-04T13:18:31.344Z,54.30
2018-08-04T13:20:59.673Z,55.90
2018-08-04T13:23:27.986Z,54.10
2018-08-04T13:25:56.328Z,55.90
2018-08-04T13:30:52.765Z,55.70
2018-08-04T13:33:21.377Z,55.40
2018-08-04T13:35:49.728Z,54.70
2018-08-04T13:38:18.057Z,53.40
2018-08-04T13:40:46.667Z,53.00
2018-08-04T13:43:15.082Z,55.10
2018-08-04T13:45:43.465Z,53.90
2018-08-04T13:48:11.836Z,51.50
2018-08-04T13:50:40.637Z,51.60
2018-08-04T13:53:09.008Z,51.50
2018-08-04T13:58:05.658Z,53.00
2018-08-04T14:00:33.960Z,51.90
2018-08-04T14:03:02.253Z,52.80
2018-08-04T14:05:30.539Z,54.80
2018-08-04T14:07:58.826Z,52.60
2018-08-04T14:10:27.155Z,52.50
2018-08-04T14:12:55.474Z,53.50
2018-08-04T14:15:23.821Z,55.20
2018-08-04T14:17:52.182Z,53.50
2018-08-04T14:22:48.643Z,54.20
2018-08-04T14:25:16.916Z,50.50
2018-08-04T14:27:45.289Z,51.90
2018-08-04T14:32:41.645Z,52.50
2018-08-04T14:35:09.991Z,51.80
2018-08-04T14:37:38.325Z,53.10
2018-08-04T14:40:06.795Z,53.00
2018-08-04T14:42:35.113Z,52.00
2018-08-04T14:45:03.493Z,53.50
2018-08-04T14:47:31.883Z,51.20
2018-08-04T14:50:00.211Z,52.00
2018-08-04T14:52:28.527Z,53.60
2018-08-04T14:54:56.896Z,52.50
2018-08-04T14:57:25.242Z,51.20
2018-08-04T14:59:53.561Z,49.80
2018-08-04T15:02:21.871Z,49.50
2018-08-04T15:04:50.232Z,49.40
2018-08-04T15:07:18.557Z,49.90
2018-08-04T15:09:46.918Z,50.90
2018-08-04T15:12:15.230Z,52.50
2018-08-04T15:14:43.561Z,51.20
2018-08-04T15:19:40.019Z,49.10
2018-08-04T15:22:08.435Z,50.40
2018-08-04T15:24:37.740Z,48.90
2018-08-04T15:27:06.049Z,50.60
2018-08-04T15:29:34.365Z,51.70
2018-08-04T15:32:02.771Z,51.30
2018-08-04T15:34:31.147Z,51.50
2018-08-04T15:36:59.494Z,51.30
2018-08-04T15:39:27.827Z,53.40
2018-08-04T15:41:56.203Z,51.60
2018-08-04T15:44:24.529Z,52.60
2018-08-04T15:46:52.881Z,52.30
2018-08-04T15:49:21.192Z,51.90
2018-08-04T15:51:49.557Z,53.20
2018-08-04T15:54:22.355Z,52.40
2018-08-04T15:56:50.713Z,52.80
2018-08-04T15:59:19.218Z,52.40
2018-08-04T16:01:47.671Z,52.30
2018-08-04T16:04:15.994Z,51.60
2018-08-04T16:06:44.340Z,51.90
2018-08-04T16:09:12.787Z,52.60
2018-08-04T16:11:41.977Z,52.90
2018-08-04T16:14:10.530Z,54.00
2018-08-04T16:16:39.662Z,53.30
2018-08-04T16:19:08.083Z,53.50
2018-08-04T16:21:36.463Z,53.70
2018-08-04T16:24:04.791Z,52.80
2018-08-04T16:26:33.104Z,52.30
2018-08-04T16:29:01.448Z,53.00
2018-08-04T16:31:29.798Z,52.80
2018-08-04T16:33:58.137Z,54.20
2018-08-04T16:36:26.453Z,53.50
2018-08-04T16:38:54.792Z,52.30
2018-08-04T16:41:23.133Z,52.10
2018-08-04T16:43:51.728Z,52.10
2018-08-04T16:46:20.046Z,52.10
2018-08-04T16:48:48.388Z,53.60
2018-08-04T16:51:16.701Z,53.60
2018-08-04T16:53:45.030Z,54.10
2018-08-04T16:56:13.434Z,55.60
2018-08-04T16:58:41.754Z,54.00
2018-08-04T17:01:10.329Z,54.10
2018-08-04T17:03:38.658Z,54.50
2018-08-04T17:06:07.009Z,55.00
2018-08-04T17:08:35.345Z,55.20
2018-08-04T17:11:03.679Z,55.70
2018-08-04T17:13:32.005Z,56.20
2018-08-04T17:16:00.316Z,55.70
2018-08-04T17:18:28.667Z,56.80
2018-08-04T17:20:56.958Z,56.90
2018-08-04T17:23:25.272Z,56.60
2018-08-04T17:25:53.782Z,56.20
2018-08-04T17:28:22.101Z,56.90
2018-08-04T17:30:50.420Z,57.10
2018-08-04T17:33:18.774Z,57.30
2018-08-04T17:35:47.089Z,58.30
2018-08-04T17:38:15.428Z,57.70
2018-08-04T17:40:44.426Z,58.30
2018-08-04T17:43:12.722Z,58.80
2018-08-04T17:45:41.217Z,59.00
2018-08-04T17:48:09.520Z,59.80
2018-08-04T17:50:37.989Z,59.70
2018-08-04T17:53:06.309Z,60.80
2018-08-04T17:55:34.614Z,60.10
2018-08-04T17:58:02.995Z,60.00
2018-08-04T18:00:31.295Z,60.10
2018-08-04T18:02:59.636Z,61.40
2018-08-04T18:05:27.939Z,60.20
2018-08-04T18:07:56.222Z,60.30
2018-08-04T18:10:24.532Z,61.10
2018-08-04T18:12:52.859Z,61.50
2018-08-04T18:15:21.170Z,61.70
2018-08-04T18:17:49.476Z,61.50
2018-08-04T18:20:17.769Z,62.30
2018-08-04T18:22:46.230Z,63.00
2018-08-04T18:25:14.549Z,63.40
2018-08-04T18:27:43.146Z,63.90
2018-08-04T18:30:11.511Z,63.00
2018-08-04T18:32:40.363Z,62.80
2018-08-04T18:35:08.682Z,63.30
2018-08-04T18:37:36.978Z,63.50
2018-08-04T18:42:33.841Z,64.10
2018-08-04T18:45:02.259Z,64.30
2018-08-04T18:47:30.600Z,65.30
2018-08-04T18:49:58.949Z,65.10
2018-08-04T18:52:27.235Z,65.90
2018-08-04T18:54:55.554Z,65.50
2018-08-04T18:57:23.915Z,65.90
2018-08-04T18:59:52.310Z,66.10
2018-08-04T19:02:20.722Z,66.50
2018-08-04T19:04:49.097Z,66.60
2018-08-04T19:07:17.441Z,67.00
2018-08-04T19:09:45.792Z,68.00
2018-08-04T19:12:14.108Z,67.70
2018-08-04T19:14:42.430Z,68.20
2018-08-04T19:17:10.806Z,68.10
2018-08-04T19:19:39.216Z,68.20
2018-08-04T19:22:07.548Z,68.00
2018-08-04T19:24:35.924Z,67.70
2018-08-04T19:27:04.238Z,67.80
2018-08-04T19:29:32.559Z,68.10
2018-08-04T19:32:00.884Z,68.10
2018-08-04T19:34:29.244Z,68.50
2018-08-04T19:36:57.592Z,69.10
2018-08-04T19:39:25.902Z,69.50
2018-08-04T19:41:54.234Z,69.50
2018-08-04T19:44:22.630Z,70.00
2018-08-04T19:46:50.984Z,70.00
2018-08-04T19:49:19.316Z,70.80
2018-08-04T19:51:47.670Z,71.20
2018-08-04T19:54:16.021Z,71.60
2018-08-04T19:56:44.353Z,72.20
2018-08-04T19:59:12.665Z,71.90
2018-08-04T20:01:41.053Z,72.40
2018-08-04T20:04:09.419Z,73.00
2018-08-04T20:06:37.825Z,73.20
2018-08-04T20:09:08.342Z,74.00
2018-08-04T20:11:36.725Z,74.20
2018-08-04T20:14:05.095Z,74.70
2018-08-04T20:16:33.382Z,74.90
2018-08-04T20:19:02.037Z,75.10
2018-08-04T20:21:31.022Z,75.40
2018-08-04T20:23:59.380Z,75.70
2018-08-04T20:26:28.353Z,75.90
2018-08-04T20:28:56.705Z,75.90
2018-08-04T20:31:25.046Z,76.60
2018-08-04T20:33:53.387Z,76.90
2018-08-04T20:36:21.726Z,77.10
2018-08-04T20:38:50.258Z,77.00
2018-08-04T20:41:19.017Z,77.50
2018-08-04T20:43:47.342Z,77.70
2018-08-04T20:46:15.696Z,77.90
2018-08-04T20:48:44.096Z,78.10
2018-08-04T20:51:12.446Z,78.20
2018-08-04T20:53:40.798Z,78.70
2018-08-04T20:56:09.245Z,79.30
2018-08-04T20:58:37.564Z,80.00
2018-08-04T21:01:17.168Z,80.30
2018-08-04T21:03:45.482Z,80.30
2018-08-04T21:06:13.810Z,80.20
2018-08-04T21:08:42.174Z,79.90
2018-08-04T21:11:10.467Z,80.10
2018-08-04T21:13:39.228Z,80.30
2018-08-04T21:16:07.624Z,80.00
2018-08-04T21:18:36.005Z,80.50
2018-08-04T21:21:04.382Z,80.70
2018-08-04T21:23:32.921Z,81.40
2018-08-04T21:26:01.241Z,81.30
2018-08-04T21:28:29.632Z,81.80
2018-08-04T21:30:57.981Z,82.20
2018-08-04T21:33:26.456Z,83.40
2018-08-04T21:35:55.456Z,82.90
2018-08-04T21:38:23.766Z,83.50
2018-08-04T21:40:52.140Z,83.60
2018-08-04T21:43:20.455Z,83.70
2018-08-04T21:45:48.883Z,83.80
2018-08-04T21:48:17.337Z,84.00
2018-08-04T21:50:45.647Z,84.50
2018-08-04T21:53:14.008Z,84.60
2018-08-04T21:55:42.368Z,85.00
2018-08-04T21:58:10.795Z,85.30
2018-08-04T22:00:44.473Z,86.00
2018-08-04T22:03:12.815Z,85.30
2018-08-04T22:05:41.122Z,85.90
2018-08-04T22:08:20.632Z,85.90
2018-08-04T22:10:48.948Z,86.40
2018-08-04T22:13:17.337Z,86.40
2018-08-04T22:15:45.663Z,86.70
2018-08-04T22:18:14.010Z,86.70
2018-08-04T22:20:42.380Z,86.80
2018-08-04T22:23:10.857Z,87.20
2018-08-04T22:25:39.229Z,87.30
2018-08-04T22:28:08.265Z,87.70
2018-08-04T22:30:37.373Z,88.00
2018-08-04T22:33:06.392Z,88.30
2018-08-04T22:35:34.714Z,88.90
2018-08-04T22:38:03.049Z,89.10
2018-08-04T22:40:31.371Z,89.60
2018-08-04T22:42:59.674Z,90.00
2018-08-04T22:45:33.990Z,90.10
2018-08-04T22:48:02.286Z,90.40
2018-08-04T22:50:30.615Z,90.50
2018-08-04T22:52:59.009Z,90.70
2018-08-04T22:55:27.301Z,90.90
2018-08-04T22:57:55.661Z,90.90
2018-08-04T23:00:24.010Z,91.30
2018-08-04T23:02:52.310Z,91.60
2018-08-04T23:07:48.729Z,92.10
2018-08-04T23:10:17.036Z,92.30
2018-08-04T23:12:45.317Z,92.60
2018-08-04T23:15:13.722Z,92.90
2018-08-04T23:17:42.054Z,93.00
2018-08-04T23:20:10.383Z,93.10
2018-08-04T23:22:38.756Z,93.20
2018-08-04T23:25:07.114Z,93.30
2018-08-04T23:27:35.432Z,93.40
2018-08-04T23:30:03.752Z,93.80
2018-08-04T23:32:32.064Z,94.00
2018-08-04T23:35:00.377Z,94.40
2018-08-04T23:37:29.106Z,94.70
2018-08-04T23:39:57.440Z,94.70
2018-08-04T23:42:25.734Z,94.80
2018-08-04T23:44:54.137Z,95.10
2018-08-04T23:47:22.491Z,95.30
2018-08-04T23:49:50.921Z,95.60
2018-08-04T23:52:19.205Z,95.90
2018-08-04T23:54:47.515Z,96.20
2018-08-04T23:57:15.821Z,96.50
2018-08-04T23:59:44.198Z,96.60
